createdAt,value
2018-12-25T00:01:50.188Z,2.07
2018-12-25T00:07:10.253Z,2.14
2018-12-25T00:12:31.606Z,2.05
2018-12-25T00:17:51.716Z,2.07
2018-12-25T00:23:11.065Z,2.07
2018-12-25T00:28:30.391Z,1.98
2018-12-25T00:33:50.251Z,2.04
2018-12-25T00:39:10.162Z,2.00
2018-12-25T00:44:30.407Z,1.94
2018-12-25T00:49:49.947Z,1.98
2018-12-25T00:55:09.001Z,2.06
2018-12-25T01:12:09.876Z,2.06
2018-12-25T01:17:29.538Z,2.08
2018-12-25T02:52:23.320Z,2.02
2018-12-25T02:57:42.564Z,2.05
2018-12-25T03:03:01.707Z,2.12
2018-12-25T03:08:21.878Z,2.14
2018-12-25T03:13:41.598Z,2.09
2018-12-25T03:19:01.355Z,2.13
2018-12-25T03:24:21.620Z,1.94
2018-12-25T03:29:41.647Z,2.04
2018-12-25T03:35:00.821Z,1.91
2018-12-25T03:40:19.941Z,1.99
2018-12-25T03:45:39.901Z,1.93
2018-12-25T03:50:59.224Z,1.91
2018-12-25T03:56:18.941Z,1.90
2018-12-25T04:01:39.444Z,1.86
2018-12-25T04:06:58.180Z,1.91
2018-12-25T04:12:18.512Z,1.86
2018-12-25T04:17:38.037Z,1.76
2018-12-25T04:22:58.822Z,1.76
2018-12-25T04:28:19.058Z,1.80
2018-12-25T04:33:39.476Z,1.86
2018-12-25T04:38:59.749Z,1.77
2018-12-25T04:44:19.421Z,1.78
2018-12-25T04:49:38.859Z,1.68
2018-12-25T04:54:58.181Z,1.68
2018-12-25T05:00:18.215Z,1.71
2018-12-25T05:05:38.177Z,1.61
2018-12-25T05:10:57.592Z,1.63
2018-12-25T05:16:17.449Z,1.60
2018-12-25T05:21:37.521Z,1.57
2018-12-25T05:26:56.884Z,1.54
2018-12-25T05:32:16.375Z,1.54
2018-12-25T05:37:38.069Z,1.53
2018-12-25T05:42:58.181Z,1.54
2018-12-25T05:48:21.380Z,1.51
2018-12-25T05:53:43.960Z,1.50
2018-12-25T05:59:05.141Z,1.50
2018-12-25T06:04:25.162Z,1.57
2018-12-25T06:09:47.337Z,1.61
2018-12-25T06:15:06.332Z,1.55
2018-12-25T06:20:26.679Z,1.56
2018-12-25T06:25:46.151Z,1.56
2018-12-25T06:31:05.440Z,1.57
2018-12-25T06:36:25.303Z,1.62
2018-12-25T06:41:44.488Z,1.59
2018-12-25T06:47:04.429Z,1.61
2018-12-25T06:52:24.381Z,1.60
2018-12-25T06:57:44.150Z,1.62
2018-12-25T07:03:03.935Z,1.62
2018-12-25T07:08:23.670Z,1.65
2018-12-25T07:13:42.936Z,1.72
2018-12-25T07:19:03.081Z,1.74
2018-12-25T07:24:22.800Z,1.73
2018-12-25T07:29:42.607Z,1.72
2018-12-25T07:35:02.003Z,1.71
2018-12-25T07:40:21.483Z,1.75
2018-12-25T07:45:40.828Z,1.76
2018-12-25T07:51:01.069Z,1.78
2018-12-25T07:56:21.088Z,1.82
2018-12-25T08:01:41.446Z,1.84
2018-12-25T08:07:00.850Z,1.88
2018-12-25T08:12:21.268Z,1.90
2018-12-25T08:17:41.137Z,1.98
2018-12-25T08:23:02.724Z,1.99
2018-12-25T08:28:19.974Z,2.00
2018-12-25T08:33:39.341Z,2.04
2018-12-25T08:38:59.682Z,2.07
2018-12-25T08:44:18.766Z,2.15
2018-12-25T08:49:38.827Z,2.17
2018-12-25T08:54:58.207Z,2.18
2018-12-25T09:00:17.969Z,2.21
2018-12-25T09:05:37.809Z,2.22
2018-12-25T09:10:58.602Z,2.18
2018-12-25T09:16:18.283Z,2.20
2018-12-25T09:21:46.172Z,2.16
2018-12-25T09:26:58.161Z,2.16
2018-12-25T09:32:17.848Z,2.12
2018-12-25T09:37:37.491Z,2.17
2018-12-25T09:42:58.469Z,2.16
2018-12-25T09:48:19.087Z,2.18
2018-12-25T09:53:38.680Z,2.15
2018-12-25T09:58:58.729Z,2.11
2018-12-25T10:04:18.311Z,2.08
2018-12-25T10:09:37.448Z,2.11
2018-12-25T10:14:57.249Z,2.11
2018-12-25T10:20:16.851Z,2.22
2018-12-25T10:25:36.399Z,2.34
2018-12-25T10:30:56.579Z,2.49
2018-12-25T10:36:15.469Z,2.62
2018-12-25T10:41:34.893Z,2.62
2018-12-25T10:46:54.887Z,2.58
2018-12-25T10:52:14.338Z,2.55
2018-12-25T10:57:34.093Z,2.55
2018-12-25T11:02:54.667Z,2.45
2018-12-25T11:08:13.920Z,2.30
2018-12-25T11:13:33.283Z,2.19
2018-12-25T11:18:53.081Z,2.18
2018-12-25T11:24:12.336Z,2.07
2018-12-25T11:29:32.073Z,1.75
2018-12-25T11:34:51.622Z,1.78
2018-12-25T11:40:11.519Z,1.87
2018-12-25T11:45:32.019Z,1.90
2018-12-25T11:50:51.652Z,2.13
2018-12-25T11:56:12.487Z,2.19
2018-12-25T12:01:33.376Z,2.34
2018-12-25T12:06:52.465Z,2.28
2018-12-25T12:12:11.831Z,2.39
2018-12-25T12:17:33.007Z,2.49
2018-12-25T12:22:52.430Z,2.54
2018-12-25T12:28:12.591Z,2.60
2018-12-25T12:33:32.407Z,2.61
2018-12-25T12:38:52.187Z,2.74
2018-12-25T12:44:12.266Z,2.65
2018-12-25T12:49:32.195Z,2.73
2018-12-25T12:54:51.683Z,2.69
2018-12-25T13:00:11.232Z,2.65
2018-12-25T13:05:31.750Z,2.56
2018-12-25T13:10:52.268Z,2.58
2018-12-25T13:16:11.772Z,2.49
2018-12-25T13:21:31.646Z,2.49
2018-12-25T13:26:51.190Z,2.48
2018-12-25T13:32:13.774Z,2.38
2018-12-25T13:37:33.370Z,2.34
2018-12-25T13:42:52.715Z,2.28
2018-12-25T13:48:11.812Z,2.27
2018-12-25T13:53:32.124Z,2.24
2018-12-25T13:58:51.807Z,2.23
2018-12-25T14:04:12.246Z,2.22
2018-12-25T14:09:32.091Z,2.22
2018-12-25T14:14:51.477Z,2.22
2018-12-25T14:20:11.223Z,2.18
2018-12-25T14:25:30.961Z,2.15
2018-12-25T14:30:51.452Z,2.12
2018-12-25T14:36:10.876Z,2.10
2018-12-25T14:41:30.584Z,2.06
2018-12-25T14:46:50.328Z,2.03
2018-12-25T14:52:09.891Z,2.04
2018-12-25T14:57:29.613Z,2.05
2018-12-25T15:02:49.244Z,2.06
2018-12-25T15:08:08.328Z,2.07
2018-12-25T15:13:27.557Z,2.09
2018-12-25T15:18:46.619Z,2.12
2018-12-25T15:24:06.329Z,2.04
2018-12-25T15:29:25.739Z,2.11
2018-12-25T15:34:46.551Z,2.10
2018-12-25T15:40:07.592Z,2.11
2018-12-25T15:45:27.375Z,2.13
2018-12-25T15:50:47.770Z,2.16
2018-12-25T15:56:07.076Z,2.15
2018-12-25T16:01:27.231Z,2.21
2018-12-25T16:06:48.311Z,2.25
2018-12-25T16:12:07.603Z,2.23
2018-12-25T16:17:30.277Z,2.21
2018-12-25T16:22:49.463Z,2.27
2018-12-25T16:28:09.735Z,2.28
2018-12-25T16:33:29.482Z,2.27
2018-12-25T16:38:48.879Z,2.26
2018-12-25T16:44:08.893Z,2.33
2018-12-25T16:49:28.317Z,2.29
2018-12-25T16:54:48.170Z,2.32
2018-12-25T17:00:08.315Z,2.34
2018-12-25T17:05:28.076Z,2.31
2018-12-25T17:10:47.915Z,2.31
2018-12-25T17:16:07.309Z,2.35
2018-12-25T17:21:29.491Z,2.28
2018-12-25T17:26:49.179Z,2.28
2018-12-25T17:32:08.363Z,2.27
2018-12-25T17:37:29.530Z,2.27
2018-12-25T17:42:47.838Z,2.29
2018-12-25T17:48:08.047Z,2.30
2018-12-25T17:53:27.353Z,2.28
2018-12-25T17:58:48.674Z,2.31
2018-12-25T18:04:08.926Z,2.24
2018-12-25T18:09:29.540Z,2.25
2018-12-25T18:14:49.137Z,2.26
2018-12-25T18:20:09.088Z,2.27
2018-12-25T18:25:28.895Z,2.29
2018-12-25T18:30:49.008Z,2.28
2018-12-25T18:36:08.822Z,2.22
2018-12-25T18:41:28.836Z,2.17
2018-12-25T18:46:48.139Z,2.21
2018-12-25T18:52:07.517Z,2.20
2018-12-25T18:57:31.373Z,2.21
2018-12-25T19:02:52.189Z,2.21
2018-12-25T19:08:12.715Z,2.24
2018-12-25T19:13:33.183Z,2.24
2018-12-25T19:18:53.054Z,2.26
2018-12-25T19:24:12.725Z,2.20
2018-12-25T19:29:32.908Z,2.20
2018-12-25T19:34:54.287Z,2.17
2018-12-25T19:40:13.733Z,2.17
2018-12-25T19:45:33.745Z,2.18
2018-12-25T19:50:53.756Z,2.10
2018-12-25T19:56:15.398Z,2.05
2018-12-25T20:01:35.575Z,2.07
2018-12-25T20:07:21.582Z,2.10
2018-12-25T20:13:29.238Z,2.07
2018-12-25T20:19:49.774Z,2.06
2018-12-25T20:26:05.769Z,2.09
2018-12-25T20:31:48.489Z,2.14
2018-12-25T20:38:01.444Z,2.11
2018-12-25T20:43:48.854Z,2.13
2018-12-25T20:49:39.860Z,2.16
2018-12-25T20:55:37.123Z,2.15
2018-12-25T21:01:36.012Z,2.17
2018-12-25T21:07:32.648Z,2.18
2018-12-25T21:13:49.895Z,2.22
2018-12-25T21:19:46.341Z,2.18
2018-12-25T21:25:45.473Z,2.10
2018-12-25T21:31:08.313Z,2.08
2018-12-25T21:36:28.866Z,2.10
2018-12-25T21:41:48.349Z,2.14
2018-12-25T21:47:08.583Z,2.17
2018-12-25T21:52:32.874Z,2.16
2018-12-25T21:57:53.186Z,2.13
2018-12-25T22:03:12.956Z,2.15
2018-12-25T22:08:33.480Z,2.15
2018-12-25T22:13:52.508Z,2.17
2018-12-25T22:19:12.063Z,2.14
2018-12-25T22:24:31.701Z,2.15
2018-12-25T22:29:51.553Z,2.10
2018-12-25T22:35:12.080Z,2.14
2018-12-25T22:40:32.317Z,2.11
2018-12-25T22:45:52.145Z,2.10
2018-12-25T22:51:12.761Z,2.10
2018-12-25T22:56:32.736Z,2.15
2018-12-25T23:01:52.186Z,2.14
2018-12-25T23:07:12.237Z,2.16
2018-12-25T23:12:32.336Z,2.16
2018-12-25T23:17:51.664Z,2.11
2018-12-25T23:23:11.453Z,2.13
2018-12-25T23:28:30.568Z,2.17
2018-12-25T23:33:49.704Z,2.15
2018-12-25T23:39:10.024Z,2.16
2018-12-25T23:44:30.129Z,2.13
2018-12-25T23:49:49.403Z,2.13
2018-12-25T23:55:09.066Z,2.15
